Time;durP1;ratioP1;P1;durP2;ratioP2;P2;SDS_P1;SDS_P2;PMS_P1;PMS_P2;Temp;Humidity;BMP_temperature;BMP_pressure;BME280_temperature;BME280_humidity;BME280_pressure;Samples;Min_cycle;Max_cycle;Signal;HPM_P1;HPM_P2
2022/06/13 00:00:30;;;;;;;11.25;4.43;;;;;;;;;;6194641;23;20020;-65
2022/06/13 00:02:57;;;;;;;11.93;3.80;;;;;;;;;;6191840;23;20362;-65
2022/06/13 00:05:31;;;;;;;8.98;3.47;;;;;;;;;;6200335;23;20339;-65
2022/06/13 00:07:57;;;;;;;8.80;3.78;;;;;;;;;;6190810;23;20026;-65
2022/06/13 00:10:23;;;;;;;11.13;3.83;;;;;;;;;;6199983;23;20021;-64
2022/06/13 00:12:50;;;;;;;9.43;4.07;;;;;;;;;;6186474;23;20474;-66
2022/06/13 00:15:16;;;;;;;10.15;3.97;;;;;;;;;;6191598;23;20027;-64
2022/06/13 00:17:43;;;;;;;8.70;3.70;;;;;;;;;;6199942;23;20494;-64
2022/06/13 00:20:09;;;;;;;9.75;3.50;;;;;;;;;;6188930;23;20553;-64
2022/06/13 00:22:36;;;;;;;13.25;5.13;;;;;;;;;;6201596;23;20415;-64
2022/06/13 00:25:02;;;;;;;18.05;5.68;;;;;;;;;;6193300;23;20111;-65
2022/06/13 00:27:28;;;;;;;11.68;5.45;;;;;;;;;;6192435;23;20111;-64
2022/06/13 00:29:55;;;;;;;9.40;4.10;;;;;;;;;;6190595;22;20025;-64
2022/06/13 00:32:21;;;;;;;9.68;4.05;;;;;;;;;;6199546;23;20410;-65
2022/06/13 00:34:48;;;;;;;10.15;3.95;;;;;;;;;;6202320;23;20472;-66
2022/06/13 00:37:14;;;;;;;12.05;3.85;;;;;;;;;;6193521;23;20027;-64
2022/06/13 00:39:41;;;;;;;10.55;3.80;;;;;;;;;;6170616;23;20259;-65
2022/06/13 00:42:07;;;;;;;10.75;4.68;;;;;;;;;;6158676;23;20368;-64
2022/06/13 00:44:35;;;;;;;9.20;3.75;;;;;;;;;;6200859;23;20024;-64
2022/06/13 00:47:02;;;;;;;10.93;3.85;;;;;;;;;;6197694;22;20025;-65
2022/06/13 00:49:28;;;;;;;9.93;3.80;;;;;;;;;;6195771;23;20108;-64
2022/06/13 00:52:00;;;;;;;10.23;3.95;;;;;;;;;;6200664;23;20027;-64
2022/06/13 00:54:26;;;;;;;6.35;3.65;;;;;;;;;;6161281;23;20466;-64
2022/06/13 00:56:52;;;;;;;8.90;3.80;;;;;;;;;;6196486;23;20480;-65
2022/06/13 00:59:20;;;;;;;8.93;3.53;;;;;;;;;;6193849;23;20345;-64
2022/06/13 01:01:47;;;;;;;7.63;4.10;;;;;;;;;;6200996;23;20428;-65
2022/06/13 01:04:14;;;;;;;14.05;3.90;;;;;;;;;;6189070;22;20059;-64
2022/06/13 01:06:42;;;;;;;9.95;3.65;;;;;;;;;;6198299;23;20120;-65
2022/06/13 01:09:10;;;;;;;13.07;4.28;;;;;;;;;;6190744;23;20054;-65
2022/06/13 01:11:37;;;;;;;8.90;3.70;;;;;;;;;;6188573;23;20103;-64
2022/06/13 01:14:09;;;;;;;14.87;4.53;;;;;;;;;;6200311;23;20067;-64
2022/06/13 01:16:39;;;;;;;8.98;3.65;;;;;;;;;;6189220;23;20139;-63
2022/06/13 01:19:14;;;;;;;10.23;3.50;;;;;;;;;;6199018;23;20111;-65
2022/06/13 01:21:41;;;;;;;11.60;5.18;;;;;;;;;;6184469;23;20140;-65
2022/06/13 01:24:27;;;;;;;12.35;5.50;;;;;;;;;;6192884;23;20025;-64
2022/06/13 01:27:10;;;;;;;12.77;4.50;;;;;;;;;;6199815;23;20420;-65
2022/06/13 01:29:36;;;;;;;11.15;4.25;;;;;;;;;;6188989;23;20021;-64
2022/06/13 01:32:18;;;;;;;13.13;4.65;;;;;;;;;;6200731;23;20029;-64
2022/06/13 01:34:50;;;;;;;13.13;4.05;;;;;;;;;;6191235;23;20030;-66
2022/06/13 01:37:23;;;;;;;16.80;4.18;;;;;;;;;;6192237;23;20111;-65
2022/06/13 01:39:49;;;;;;;11.77;4.43;;;;;;;;;;6192743;23;20024;-64
2022/06/13 01:42:35;;;;;;;8.07;4.38;;;;;;;;;;6201317;23;20749;-64
2022/06/13 01:45:11;;;;;;;10.20;3.88;;;;;;;;;;6193027;22;20062;-64
2022/06/13 01:47:45;;;;;;;10.98;4.28;;;;;;;;;;6200365;23;20024;-64
2022/06/13 01:50:15;;;;;;;12.27;4.55;;;;;;;;;;6195282;23;20025;-64
2022/06/13 01:53:00;;;;;;;12.18;4.35;;;;;;;;;;6186462;23;20056;-65
2022/06/13 01:55:48;;;;;;;8.23;4.30;;;;;;;;;;6202454;23;20024;-65
2022/06/13 01:58:31;;;;;;;9.70;4.20;;;;;;;;;;6194191;22;20550;-64
2022/06/13 02:01:02;;;;;;;13.80;5.03;;;;;;;;;;6202596;23;20064;-66
2022/06/13 02:03:30;;;;;;;8.73;4.70;;;;;;;;;;6186798;23;20028;-63
2022/06/13 02:05:56;;;;;;;;;;;;;;;;;;6196413;23;20112;-65
2022/06/13 02:08:25;;;;;;;13.35;4.95;;;;;;;;;;6190472;23;19947;-65
2022/06/13 02:10:51;;;;;;;;;;;;;;;;;;6201412;23;20021;-64
2022/06/13 02:13:25;;;;;;;9.63;4.53;;;;;;;;;;6201162;23;19991;-66
2022/06/13 02:15:54;;;;;;;12.57;4.70;;;;;;;;;;6191185;23;20518;-65
2022/06/13 02:18:24;;;;;;;12.38;5.03;;;;;;;;;;6194557;23;20091;-65
2022/06/13 02:20:54;;;;;;;16.45;5.55;;;;;;;;;;6185546;22;20025;-64
2022/06/13 02:23:23;;;;;;;12.70;4.80;;;;;;;;;;6201336;23;20453;-64
2022/06/13 02:25:51;;;;;;;17.42;4.85;;;;;;;;;;6191082;23;20470;-65
2022/06/13 02:28:20;;;;;;;10.88;5.25;;;;;;;;;;6201385;23;20030;-65
2022/06/13 02:30:50;;;;;;;12.75;5.03;;;;;;;;;;6200312;23;20024;-64
2022/06/13 02:33:22;;;;;;;15.02;5.65;;;;;;;;;;6182840;23;20074;-64
2022/06/13 02:35:59;;;;;;;13.23;5.50;;;;;;;;;;6201040;23;20020;-65
2022/06/13 02:38:31;;;;;;;12.32;4.43;;;;;;;;;;6189391;23;20111;-65
2022/06/13 02:40:59;;;;;;;10.90;4.97;;;;;;;;;;6200077;23;20050;-65
2022/06/13 02:43:36;;;;;;;12.50;5.40;;;;;;;;;;6191628;23;20020;-64
2022/06/13 02:46:06;;;;;;;14.02;5.35;;;;;;;;;;6192449;23;20071;-64
2022/06/13 02:48:35;;;;;;;12.82;5.30;;;;;;;;;;6189189;22;20079;-64
2022/06/13 02:51:08;;;;;;;14.18;5.65;;;;;;;;;;6200261;23;20095;-64
2022/06/13 02:53:38;;;;;;;17.88;6.10;;;;;;;;;;6200811;23;20111;-64
2022/06/13 02:56:08;;;;;;;12.02;5.80;;;;;;;;;;6191032;22;20025;-64
2022/06/13 02:58:39;;;;;;;15.20;6.32;;;;;;;;;;6194991;23;20115;-65
2022/06/13 03:01:05;;;;;;;16.50;5.47;;;;;;;;;;6184838;22;20031;-65
2022/06/13 03:03:31;;;;;;;12.27;5.15;;;;;;;;;;6200727;23;20135;-64
2022/06/13 03:06:04;;;;;;;15.70;5.55;;;;;;;;;;6190485;23;20031;-64
2022/06/13 03:08:31;;;;;;;13.40;5.10;;;;;;;;;;6200731;23;20020;-64
2022/06/13 03:11:12;;;;;;;10.68;5.20;;;;;;;;;;6201456;23;20021;-65
2022/06/13 03:13:38;;;;;;;13.05;5.43;;;;;;;;;;6181781;23;20027;-64
2022/06/13 03:16:15;;;;;;;15.10;5.20;;;;;;;;;;6197215;23;20466;-64
2022/06/13 03:18:48;;;;;;;11.75;5.75;;;;;;;;;;6190329;22;20028;-64
2022/06/13 03:21:25;;;;;;;17.45;6.05;;;;;;;;;;6200802;23;20036;-64
2022/06/13 03:23:55;;;;;;;11.05;5.65;;;;;;;;;;6190479;23;20024;-64
2022/06/13 03:26:30;;;;;;;12.43;5.53;;;;;;;;;;6197983;23;20031;-65
2022/06/13 03:29:13;;;;;;;10.68;5.72;;;;;;;;;;6159589;23;20107;-64
2022/06/13 03:31:44;;;;;;;11.20;6.03;;;;;;;;;;6200267;23;20081;-65
2022/06/13 03:34:13;;;;;;;10.63;5.57;;;;;;;;;;6200785;23;20340;-65
2022/06/13 03:36:43;;;;;;;15.32;6.15;;;;;;;;;;6190591;23;20489;-65
2022/06/13 03:39:18;;;;;;;16.20;6.28;;;;;;;;;;6193342;23;20020;-64
2022/06/13 03:41:55;;;;;;;13.05;5.60;;;;;;;;;;6185044;23;20027;-65
2022/06/13 03:44:37;;;;;;;11.70;6.00;;;;;;;;;;6200045;23;20024;-65
2022/06/13 03:47:13;;;;;;;11.52;6.07;;;;;;;;;;6186817;23;20345;-64
2022/06/13 03:49:57;;;;;;;10.80;5.68;;;;;;;;;;6200892;23;20410;-64
2022/06/13 03:52:24;;;;;;;15.00;6.22;;;;;;;;;;6192618;23;20429;-64
2022/06/13 03:54:54;;;;;;;12.27;5.60;;;;;;;;;;6193155;23;20215;-64
2022/06/13 03:57:23;;;;;;;11.77;6.13;;;;;;;;;;6200058;23;20123;-65
2022/06/13 03:59:49;;;;;;;;;;;;;;;;;;6189953;23;20029;-64
2022/06/13 04:02:18;;;;;;;11.70;5.60;;;;;;;;;;6200486;23;20003;-64
2022/06/13 04:04:46;;;;;;;11.70;5.57;;;;;;;;;;6190325;23;20028;-64
2022/06/13 04:07:12;;;;;;;14.52;5.97;;;;;;;;;;6194491;23;20115;-65
2022/06/13 04:09:41;;;;;;;17.92;6.45;;;;;;;;;;6158112;23;20026;-64
2022/06/13 04:12:27;;;;;;;17.17;6.75;;;;;;;;;;6199288;23;20116;-65
2022/06/13 04:14:53;;;;;;;13.75;6.18;;;;;;;;;;6199750;23;20398;-64
2022/06/13 04:17:34;;;;;;;14.88;6.78;;;;;;;;;;6189764;23;20107;-65
2022/06/13 04:20:03;;;;;;;17.27;6.82;;;;;;;;;;6199530;23;20021;-64
2022/06/13 04:22:38;;;;;;;17.42;6.90;;;;;;;;;;6183966;23;20528;-65
2022/06/13 04:25:10;;;;;;;15.40;7.55;;;;;;;;;;6196168;23;20027;-64
2022/06/13 04:27:48;;;;;;;17.13;7.43;;;;;;;;;;6188485;23;20628;-64
2022/06/13 04:30:19;;;;;;;18.77;7.03;;;;;;;;;;6199175;23;20471;-65
2022/06/13 04:32:52;;;;;;;12.23;5.82;;;;;;;;;;6197618;23;20108;-64
2022/06/13 04:35:19;;;;;;;16.95;7.25;;;;;;;;;;6198158;23;20108;-64
2022/06/13 04:37:46;;;;;;;19.67;7.65;;;;;;;;;;6199753;23;20103;-65
2022/06/13 04:40:16;;;;;;;15.05;8.48;;;;;;;;;;6189508;22;20058;-65
2022/06/13 04:42:43;;;;;;;18.80;7.97;;;;;;;;;;6200515;23;20025;-65
2022/06/13 04:45:21;;;;;;;16.88;7.80;;;;;;;;;;6185003;23;20059;-65
2022/06/13 04:47:48;;;;;;;16.50;7.28;;;;;;;;;;6193618;23;20537;-64
2022/06/13 04:50:16;;;;;;;14.63;7.70;;;;;;;;;;6189889;23;20202;-64
2022/06/13 04:52:44;;;;;;;13.50;7.93;;;;;;;;;;6198831;23;20533;-64
2022/06/13 04:55:14;;;;;;;17.88;8.77;;;;;;;;;;6199537;23;20043;-65
2022/06/13 04:57:40;;;;;;;19.58;7.85;;;;;;;;;;6190206;23;20107;-64
2022/06/13 05:00:08;;;;;;;19.13;8.32;;;;;;;;;;6193185;23;20380;-66
2022/06/13 05:02:42;;;;;;;15.63;7.90;;;;;;;;;;6184513;22;20025;-65
2022/06/13 05:05:41;;;;;;;21.13;8.55;;;;;;;;;;6198992;23;20416;-65
2022/06/13 05:08:34;;;;;;;20.73;8.90;;;;;;;;;;6138007;22;20481;-65
2022/06/13 05:11:05;;;;;;;20.52;8.95;;;;;;;;;;6195029;23;20531;-65
2022/06/13 05:13:31;;;;;;;19.75;8.82;;;;;;;;;;6184386;23;20024;-64
2022/06/13 05:16:21;;;;;;;17.88;8.48;;;;;;;;;;6196982;23;20710;-65
2022/06/13 05:18:56;;;;;;;16.42;8.45;;;;;;;;;;6187991;23;20038;-64
2022/06/13 05:21:29;;;;;;;20.48;9.00;;;;;;;;;;6161613;23;20024;-64
2022/06/13 05:23:58;;;;;;;17.80;7.90;;;;;;;;;;6200173;23;20119;-65
2022/06/13 05:26:29;;;;;;;16.98;8.52;;;;;;;;;;6183820;23;20462;-65
2022/06/13 05:28:57;;;;;;;20.90;8.07;;;;;;;;;;6192586;23;20036;-65
2022/06/13 05:31:23;;;;;;;19.90;9.00;;;;;;;;;;6191315;23;20211;-64
2022/06/13 05:33:50;;;;;;;19.45;6.80;;;;;;;;;;6203072;23;20401;-65
2022/06/13 05:36:18;;;;;;;18.65;7.85;;;;;;;;;;6201187;23;20031;-65
2022/06/13 05:38:46;;;;;;;19.35;8.20;;;;;;;;;;6194321;23;20136;-64
2022/06/13 05:41:12;;;;;;;14.52;7.18;;;;;;;;;;6195820;23;20111;-64
2022/06/13 05:43:39;;;;;;;19.98;7.10;;;;;;;;;;6187321;23;20032;-65
2022/06/13 05:46:07;;;;;;;21.80;7.40;;;;;;;;;;6198256;23;20021;-65
2022/06/13 05:48:34;;;;;;;19.05;7.38;;;;;;;;;;6190946;23;20028;-64
2022/06/13 05:51:00;;;;;;;19.83;7.00;;;;;;;;;;6200731;23;20478;-64
2022/06/13 05:53:27;;;;;;;21.85;7.10;;;;;;;;;;6199468;23;20024;-65
2022/06/13 05:55:55;;;;;;;18.05;6.63;;;;;;;;;;6185570;23;20031;-65
2022/06/13 05:58:22;;;;;;;19.33;6.70;;;;;;;;;;6200936;23;20024;-65
2022/06/13 06:00:50;;;;;;;17.98;6.75;;;;;;;;;;6194436;23;20644;-65
2022/06/13 06:03:16;;;;;;;19.23;6.38;;;;;;;;;;6200665;23;20498;-66
2022/06/13 06:05:43;;;;;;;20.65;6.15;;;;;;;;;;6190074;22;20028;-64
2022/06/13 06:08:20;;;;;;;16.58;5.78;;;;;;;;;;6194351;23;20020;-65
2022/06/13 06:10:47;;;;;;;15.57;6.10;;;;;;;;;;6194514;23;20060;-65
2022/06/13 06:13:14;;;;;;;16.25;5.50;;;;;;;;;;6187798;23;20043;-64
2022/06/13 06:15:41;;;;;;;17.70;5.55;;;;;;;;;;6199581;23;20655;-66
2022/06/13 06:18:08;;;;;;;12.65;4.75;;;;;;;;;;6188177;23;20027;-66
2022/06/13 06:20:36;;;;;;;14.88;5.28;;;;;;;;;;6200392;23;20127;-65
2022/06/13 06:23:03;;;;;;;12.38;4.45;;;;;;;;;;6187798;22;20056;-65
2022/06/13 06:25:30;;;;;;;16.30;4.35;;;;;;;;;;6195494;23;20078;-65
2022/06/13 06:27:56;;;;;;;14.45;4.85;;;;;;;;;;6199815;23;20031;-65
2022/06/13 06:30:23;;;;;;;12.43;4.88;;;;;;;;;;6190231;23;20488;-66
2022/06/13 06:32:54;;;;;;;14.85;4.50;;;;;;;;;;6201510;23;20566;-65
2022/06/13 06:35:21;;;;;;;12.27;3.80;;;;;;;;;;6186476;22;20112;-63
2022/06/13 06:37:48;;;;;;;13.05;4.00;;;;;;;;;;6194333;23;20331;-66
2022/06/13 06:40:16;;;;;;;8.93;3.42;;;;;;;;;;6192119;22;20070;-65
2022/06/13 06:42:42;;;;;;;13.18;4.30;;;;;;;;;;6203404;23;20020;-63
2022/06/13 06:45:20;;;;;;;7.97;2.80;;;;;;;;;;6200771;23;20027;-65
2022/06/13 06:47:47;;;;;;;10.00;2.70;;;;;;;;;;6194572;23;20127;-65
2022/06/13 06:50:15;;;;;;;11.35;3.17;;;;;;;;;;6195364;23;20444;-64
2022/06/13 06:52:42;;;;;;;8.52;2.88;;;;;;;;;;6157795;23;20123;-65
2022/06/13 07:00:43;;;;;;;8.77;2.45;;;;;;;;;;6202826;23;20025;-66
2022/06/13 07:03:09;;;;;;;7.78;3.15;;;;;;;;;;6192060;23;20071;-65
2022/06/13 07:05:36;;;;;;;8.63;2.67;;;;;;;;;;6193555;23;20102;-65
2022/06/13 07:08:02;;;;;;;7.68;2.92;;;;;;;;;;6202118;23;20028;-65
2022/06/13 07:10:29;;;;;;;8.05;2.75;;;;;;;;;;6192184;23;20409;-64
2022/06/13 07:12:55;;;;;;;8.88;2.53;;;;;;;;;;6202385;23;20436;-66
2022/06/13 07:15:22;;;;;;;12.15;3.08;;;;;;;;;;6191251;22;20369;-65
2022/06/13 07:17:48;;;;;;;6.57;2.47;;;;;;;;;;6197425;23;20027;-64
2022/06/13 07:20:15;;;;;;;9.98;2.67;;;;;;;;;;6196944;23;20433;-65
2022/06/13 07:22:49;;;;;;;10.55;3.00;;;;;;;;;;6192781;23;20020;-65
2022/06/13 07:25:17;;;;;;;10.82;3.33;;;;;;;;;;6201464;23;20109;-64
2022/06/13 07:27:43;;;;;;;13.88;2.97;;;;;;;;;;6191842;23;20034;-64
2022/06/13 07:30:12;;;;;;;8.77;2.70;;;;;;;;;;6201012;23;20203;-64
2022/06/13 07:32:39;;;;;;;9.85;3.20;;;;;;;;;;6188622;23;20036;-64
2022/06/13 07:35:07;;;;;;;11.60;3.00;;;;;;;;;;6198045;23;20024;-65
2022/06/13 07:40:19;;;;;;;7.93;2.35;;;;;;;;;;6201304;23;20131;-65
2022/06/13 07:42:47;;;;;;;8.60;2.90;;;;;;;;;;6201931;23;20021;-65
2022/06/13 07:45:19;;;;;;;8.35;2.97;;;;;;;;;;6183568;23;20104;-65
2022/06/13 07:48:06;;;;;;;9.75;2.55;;;;;;;;;;6196202;23;20113;-65
2022/06/13 07:50:33;;;;;;;9.18;2.60;;;;;;;;;;6191418;23;20406;-65
2022/06/13 07:52:59;;;;;;;9.07;2.47;;;;;;;;;;6201616;23;20508;-65
2022/06/13 07:55:26;;;;;;;6.88;2.20;;;;;;;;;;6191501;23;20362;-67
2022/06/13 07:57:52;;;;;;;7.80;2.13;;;;;;;;;;6202054;23;20095;-64
2022/06/13 08:00:25;;;;;;;7.03;1.60;;;;;;;;;;6195710;23;20028;-64
2022/06/13 08:02:53;;;;;;;7.22;2.17;;;;;;;;;;6188728;23;20064;-64
2022/06/13 08:05:20;;;;;;;4.90;1.60;;;;;;;;;;6202290;23;20124;-65
2022/06/13 08:07:46;;;;;;;8.27;2.30;;;;;;;;;;6192464;23;20028;-65
2022/06/13 08:10:13;;;;;;;6.00;1.67;;;;;;;;;;6201688;23;20025;-65
2022/06/13 08:12:41;;;;;;;5.75;1.50;;;;;;;;;;6193053;23;20127;-64
2022/06/13 08:15:07;;;;;;;6.13;1.65;;;;;;;;;;6195964;23;20025;-66
2022/06/13 08:17:34;;;;;;;5.07;1.67;;;;;;;;;;6202443;23;20123;-64
2022/06/13 08:20:00;;;;;;;4.18;1.25;;;;;;;;;;6194867;22;20025;-64
2022/06/13 08:22:27;;;;;;;4.15;1.30;;;;;;;;;;6203190;23;20031;-65
2022/06/13 08:24:53;;;;;;;6.50;1.52;;;;;;;;;;6196234;23;20119;-65
2022/06/13 08:27:20;;;;;;;4.82;1.33;;;;;;;;;;6196593;23;20024;-64
2022/06/13 08:29:46;;;;;;;5.20;1.42;;;;;;;;;;6188793;23;20083;-65
2022/06/13 08:32:18;;;;;;;5.15;1.30;;;;;;;;;;6202031;23;20446;-64
2022/06/13 08:34:45;;;;;;;5.28;1.38;;;;;;;;;;6203233;23;20029;-64
2022/06/13 08:37:11;;;;;;;4.88;1.30;;;;;;;;;;6190547;23;20231;-65
2022/06/13 08:39:37;;;;;;;1.75;0.93;;;;;;;;;;6201148;23;20046;-65
2022/06/13 08:42:07;;;;;;;4.00;1.13;;;;;;;;;;6183086;23;20488;-65
2022/06/13 08:44:53;;;;;;;3.90;1.35;;;;;;;;;;6198788;23;20059;-64
2022/06/13 08:47:27;;;;;;;6.75;1.83;;;;;;;;;;6186997;23;20034;-66
2022/06/13 08:50:05;;;;;;;4.43;1.15;;;;;;;;;;6200430;23;20030;-63
2022/06/13 08:52:34;;;;;;;6.10;1.20;;;;;;;;;;6194173;23;20059;-64
2022/06/13 08:55:01;;;;;;;4.90;1.20;;;;;;;;;;6194451;23;20098;-64
2022/06/13 08:57:29;;;;;;;5.88;1.40;;;;;;;;;;6194562;23;20457;-64
2022/06/13 09:00:03;;;;;;;3.67;0.98;;;;;;;;;;6191121;23;20111;-65
2022/06/13 09:02:40;;;;;;;4.78;1.00;;;;;;;;;;6201413;23;20028;-64
2022/06/13 09:05:10;;;;;;;6.18;1.20;;;;;;;;;;6191096;23;20028;-64
2022/06/13 09:07:36;;;;;;;4.13;1.42;;;;;;;;;;6202092;23;20032;-66
2022/06/13 09:10:06;;;;;;;8.85;1.75;;;;;;;;;;6187185;23;20091;-65
2022/06/13 09:12:52;;;;;;;5.40;1.55;;;;;;;;;;6200467;23;20067;-66
2022/06/13 09:15:20;;;;;;;5.63;1.60;;;;;;;;;;6196449;22;20051;-65
2022/06/13 09:18:08;;;;;;;6.40;1.15;;;;;;;;;;6200974;23;20075;-65
2022/06/13 09:20:49;;;;;;;6.63;1.48;;;;;;;;;;6201680;23;20078;-66
2022/06/13 09:23:31;;;;;;;5.82;1.30;;;;;;;;;;6191079;23;20032;-65
2022/06/13 09:25:59;;;;;;;5.03;1.20;;;;;;;;;;6195246;23;20083;-65
2022/06/13 09:28:32;;;;;;;6.28;1.17;;;;;;;;;;6192754;22;20024;-64
2022/06/13 09:31:03;;;;;;;5.72;1.40;;;;;;;;;;6202343;23;20103;-65
2022/06/13 09:33:32;;;;;;;3.83;1.27;;;;;;;;;;6194198;23;20025;-65
2022/06/13 09:36:02;;;;;;;4.78;1.25;;;;;;;;;;6202785;23;20060;-65
2022/06/13 09:38:32;;;;;;;6.75;1.20;;;;;;;;;;6183758;23;20107;-66
2022/06/13 09:41:01;;;;;;;5.38;1.13;;;;;;;;;;6201662;23;20074;-65
2022/06/13 09:43:42;;;;;;;6.55;1.40;;;;;;;;;;6201337;23;20143;-65
2022/06/13 09:46:08;;;;;;;5.68;1.15;;;;;;;;;;6189211;23;20021;-65
2022/06/13 09:48:35;;;;;;;7.75;1.80;;;;;;;;;;6203068;23;20021;-66
2022/06/13 09:51:17;;;;;;;4.38;1.00;;;;;;;;;;6187856;23;20063;-66
2022/06/13 09:54:08;;;;;;;6.03;1.20;;;;;;;;;;6199184;23;20025;-66
2022/06/13 09:56:57;;;;;;;5.05;1.20;;;;;;;;;;6181557;23;20111;-66
2022/06/13 09:59:42;;;;;;;4.95;1.23;;;;;;;;;;6200663;23;20060;-66
2022/06/13 10:02:13;;;;;;;9.23;1.38;;;;;;;;;;6192472;23;20067;-66
2022/06/13 10:04:46;;;;;;;8.30;1.33;;;;;;;;;;6195538;23;20095;-66
2022/06/13 10:07:16;;;;;;;3.40;1.17;;;;;;;;;;6187517;23;20036;-65
2022/06/13 10:09:49;;;;;;;4.28;1.27;;;;;;;;;;6200541;23;20025;-66
2022/06/13 10:12:29;;;;;;;4.85;1.35;;;;;;;;;;6193842;22;20043;-66
2022/06/13 10:15:01;;;;;;;3.38;1.05;;;;;;;;;;6204193;23;20032;-65
2022/06/13 10:17:30;;;;;;;7.60;1.20;;;;;;;;;;6175057;23;20106;-65
2022/06/13 10:19:57;;;;;;;2.47;1.00;;;;;;;;;;6187917;23;20056;-64
2022/06/13 10:22:31;;;;;;;5.30;0.85;;;;;;;;;;6203931;23;20132;-64
2022/06/13 10:25:16;;;;;;;3.97;1.13;;;;;;;;;;6196244;23;20116;-65
2022/06/13 10:27:55;;;;;;;4.55;1.20;;;;;;;;;;6204162;23;20127;-65
2022/06/13 10:30:34;;;;;;;7.13;1.10;;;;;;;;;;6194385;23;20023;-64
2022/06/13 10:33:21;;;;;;;6.28;0.95;;;;;;;;;;6196875;23;20331;-65
2022/06/13 10:35:54;;;;;;;8.10;1.40;;;;;;;;;;6190044;23;20402;-65
2022/06/13 10:38:21;;;;;;;5.90;1.63;;;;;;;;;;6201098;23;20024;-65
2022/06/13 10:40:47;;;;;;;7.03;1.20;;;;;;;;;;6202224;23;20103;-65
2022/06/13 10:43:14;;;;;;;5.55;1.38;;;;;;;;;;6190360;23;20508;-65
2022/06/13 10:45:41;;;;;;;4.85;1.25;;;;;;;;;;6191181;23;20030;-65
2022/06/13 10:48:23;;;;;;;4.90;1.20;;;;;;;;;;6183909;23;20536;-64
2022/06/13 10:50:59;;;;;;;7.25;1.38;;;;;;;;;;6205671;23;20056;-67
2022/06/13 10:53:36;;;;;;;3.90;1.05;;;;;;;;;;6195101;23;20143;-65
2022/06/13 10:56:04;;;;;;;6.57;1.30;;;;;;;;;;6207891;23;20128;-66
2022/06/13 10:58:41;;;;;;;5.45;1.20;;;;;;;;;;6196799;22;20241;-64
2022/06/13 11:01:15;;;;;;;5.00;1.00;;;;;;;;;;6206221;23;20107;-66
2022/06/13 11:03:43;;;;;;;6.88;1.40;;;;;;;;;;6210264;23;20020;-64
2022/06/13 11:06:16;;;;;;;5.72;1.30;;;;;;;;;;6175885;23;20103;-65
2022/06/13 11:08:43;;;;;;;6.15;1.50;;;;;;;;;;6210554;23;20048;-65
2022/06/13 11:11:15;;;;;;;5.15;1.30;;;;;;;;;;6197508;22;20734;-64
2022/06/13 11:13:50;;;;;;;3.92;1.15;;;;;;;;;;6204132;23;20600;-65
2022/06/13 11:24:46;;;;;;;4.10;0.93;;;;;;;;;;6208132;23;20099;-65
2022/06/13 11:27:41;;;;;;;2.53;0.90;;;;;;;;;;6167638;23;20470;-64
2022/06/13 11:30:30;;;;;;;3.17;0.90;;;;;;;;;;6206935;23;20059;-63
2022/06/13 11:32:59;;;;;;;2.95;0.98;;;;;;;;;;6155890;22;20064;-64
2022/06/13 11:35:35;;;;;;;6.32;0.90;;;;;;;;;;6208443;23;20075;-65
2022/06/13 11:38:19;;;;;;;4.97;0.90;;;;;;;;;;6205240;23;20470;-65
2022/06/13 11:40:56;;;;;;;3.20;0.90;;;;;;;;;;6174856;23;20497;-65
2022/06/13 11:43:31;;;;;;;1.85;0.80;;;;;;;;;;6204431;23;20107;-65
2022/06/13 11:46:00;;;;;;;5.88;1.25;;;;;;;;;;6197573;23;20434;-66
2022/06/13 11:48:27;;;;;;;4.95;1.13;;;;;;;;;;6208206;23;20472;-65
2022/06/13 11:51:05;;;;;;;3.28;1.00;;;;;;;;;;6200044;23;20095;-66
2022/06/13 11:53:37;;;;;;;6.07;1.17;;;;;;;;;;6203257;23;20509;-65
2022/06/13 11:56:09;;;;;;;4.95;1.20;;;;;;;;;;6195436;23;20021;-65
2022/06/13 11:58:40;;;;;;;11.57;6.93;;;;;;;;;;6208594;23;20025;-66
2022/06/13 12:01:14;;;;;;;4.82;1.40;;;;;;;;;;6200347;23;20443;-64
2022/06/13 12:03:56;;;;;;;5.32;1.25;;;;;;;;;;6207965;23;20024;-65
2022/06/13 12:06:23;;;;;;;8.93;1.23;;;;;;;;;;6209120;23;20346;-65
2022/06/13 12:08:50;;;;;;;3.88;1.00;;;;;;;;;;6193012;23;20024;-65
2022/06/13 12:11:17;;;;;;;3.38;0.88;;;;;;;;;;6205351;23;20037;-65
2022/06/13 12:13:44;;;;;;;3.78;0.80;;;;;;;;;;6201129;23;20096;-65
2022/06/13 12:16:17;;;;;;;2.30;0.77;;;;;;;;;;6207814;23;20052;-65
2022/06/13 12:18:44;;;;;;;4.55;1.05;;;;;;;;;;6200534;23;20863;-65
2022/06/13 12:21:29;;;;;;;5.25;1.30;;;;;;;;;;6203718;23;20027;-65
2022/06/13 12:24:14;;;;;;;2.47;0.98;;;;;;;;;;6198071;23;20075;-64
2022/06/13 12:26:43;;;;;;;2.22;0.90;;;;;;;;;;6208005;23;20024;-66
2022/06/13 12:29:23;;;;;;;3.42;0.90;;;;;;;;;;6206780;23;20104;-65
2022/06/13 12:32:06;;;;;;;6.50;1.60;;;;;;;;;;6201415;22;20096;-66
2022/06/13 12:34:33;;;;;;;3.00;0.82;;;;;;;;;;6208331;23;20031;-66
2022/06/13 12:37:24;;;;;;;3.15;0.80;;;;;;;;;;6190957;23;20031;-65
2022/06/13 12:39:50;;;;;;;2.85;0.75;;;;;;;;;;6207451;23;20028;-66
2022/06/13 12:42:20;;;;;;;6.70;1.10;;;;;;;;;;6201557;23;20261;-65
2022/06/13 12:45:04;;;;;;;3.13;1.05;;;;;;;;;;6209121;23;20060;-66
2022/06/13 12:47:39;;;;;;;2.15;0.80;;;;;;;;;;6198140;23;20025;-64
2022/06/13 12:50:25;;;;;;;4.05;0.90;;;;;;;;;;6202610;23;20047;-64
2022/06/13 12:52:59;;;;;;;3.92;0.90;;;;;;;;;;6193637;23;20024;-64
2022/06/13 12:55:28;;;;;;;7.07;1.00;;;;;;;;;;6207829;23;20096;-65
2022/06/13 12:58:03;;;;;;;4.13;0.80;;;;;;;;;;6208463;23;20024;-65
2022/06/13 13:00:45;;;;;;;3.83;0.80;;;;;;;;;;6204535;23;20028;-63
2022/06/13 13:03:20;;;;;;;2.97;0.80;;;;;;;;;;6202575;23;20035;-64
2022/06/13 13:06:00;;;;;;;4.40;1.00;;;;;;;;;;6194952;22;20032;-64
2022/06/13 13:08:29;;;;;;;4.47;1.10;;;;;;;;;;6207259;23;20669;-64
2022/06/13 13:11:14;;;;;;;4.78;1.02;;;;;;;;;;6201899;23;20095;-64
2022/06/13 13:13:42;;;;;;;5.70;1.02;;;;;;;;;;6208523;23;20100;-64
2022/06/13 13:16:20;;;;;;;6.22;1.63;;;;;;;;;;6200126;23;20096;-65
2022/06/13 13:18:52;;;;;;;6.93;1.38;;;;;;;;;;6201368;23;20029;-65
2022/06/13 13:21:21;;;;;;;3.85;1.00;;;;;;;;;;6170515;23;20096;-64
2022/06/13 13:23:47;;;;;;;5.07;1.10;;;;;;;;;;6208798;23;20107;-65
2022/06/13 13:26:20;;;;;;;5.15;1.30;;;;;;;;;;6207343;23;20080;-65
2022/06/13 13:28:59;;;;;;;4.88;1.27;;;;;;;;;;6198239;23;20509;-64
2022/06/13 13:31:42;;;;;;;3.45;1.30;;;;;;;;;;6202314;23;20636;-64
2022/06/13 13:34:28;;;;;;;5.40;1.30;;;;;;;;;;6194865;22;20358;-64
2022/06/13 13:36:57;;;;;;;4.88;1.27;;;;;;;;;;6208120;23;20060;-66
2022/06/13 13:39:29;;;;;;;5.78;1.33;;;;;;;;;;6200284;23;20055;-65
2022/06/13 13:42:00;;;;;;;3.17;1.20;;;;;;;;;;6207182;23;20052;-65
2022/06/13 13:44:31;;;;;;;6.50;1.40;;;;;;;;;;6194629;23;20097;-64
2022/06/13 13:47:09;;;;;;;4.15;1.10;;;;;;;;;;6197181;23;20052;-65
2022/06/13 13:49:50;;;;;;;6.00;1.17;;;;;;;;;;6204822;23;20025;-66
2022/06/13 13:52:19;;;;;;;4.90;1.42;;;;;;;;;;6205321;23;20043;-65
2022/06/13 13:54:49;;;;;;;3.90;1.20;;;;;;;;;;6207288;23;20032;-65
2022/06/13 13:57:15;;;;;;;6.85;1.40;;;;;;;;;;6171078;23;20107;-65
2022/06/13 13:59:44;;;;;;;4.75;1.30;;;;;;;;;;6201340;23;20107;-64
2022/06/13 14:02:22;;;;;;;7.50;1.10;;;;;;;;;;6192078;23;20056;-65
2022/06/13 14:04:51;;;;;;;4.60;1.00;;;;;;;;;;6207261;23;20024;-64
2022/06/13 14:07:40;;;;;;;4.95;1.10;;;;;;;;;;6198105;22;20736;-64
2022/06/13 14:10:08;;;;;;;5.18;1.15;;;;;;;;;;6206555;23;20418;-64
2022/06/13 14:12:53;;;;;;;5.25;1.17;;;;;;;;;;6195344;23;20633;-64
2022/06/13 14:15:29;;;;;;;3.55;1.05;;;;;;;;;;6200502;23;20104;-65
2022/06/13 14:17:55;;;;;;;7.20;1.70;;;;;;;;;;6206337;23;20017;-65
2022/06/13 14:20:26;;;;;;;4.10;1.30;;;;;;;;;;6197590;23;20268;-65
2022/06/13 14:22:57;;;;;;;6.70;1.35;;;;;;;;;;6207364;23;20439;-64
2022/06/13 14:25:26;;;;;;;4.38;1.25;;;;;;;;;;6197767;23;20099;-64
2022/06/13 14:28:04;;;;;;;5.50;1.35;;;;;;;;;;6200892;23;20028;-64
2022/06/13 14:36:08;;;;;;;7.00;1.10;;;;;;;;;;6199011;23;20246;-64
2022/06/13 14:38:38;;;;;;;3.97;1.40;;;;;;;;;;6207135;23;20029;-64
2022/06/13 14:41:27;;;;;;;2.90;1.05;;;;;;;;;;6201484;23;20508;-65
2022/06/13 14:43:59;;;;;;;7.68;1.60;;;;;;;;;;6188998;23;20021;-65
2022/06/13 14:46:35;;;;;;;8.60;1.65;;;;;;;;;;6204953;23;20067;-65
2022/06/13 14:49:11;;;;;;;6.13;1.25;;;;;;;;;;6199354;23;20067;-65
2022/06/13 14:51:56;;;;;;;8.13;1.50;;;;;;;;;;6180822;23;20028;-65
2022/06/13 14:54:38;;;;;;;4.50;1.10;;;;;;;;;;6196530;23;20361;-65
2022/06/13 14:57:23;;;;;;;5.20;1.20;;;;;;;;;;6204848;23;20016;-65
2022/06/13 15:00:09;;;;;;;7.78;1.45;;;;;;;;;;6199638;23;20099;-65
2022/06/13 15:02:54;;;;;;;6.57;1.67;;;;;;;;;;6208966;23;20099;-65
2022/06/13 15:05:30;;;;;;;6.25;1.33;;;;;;;;;;6200594;23;20024;-64
2022/06/13 15:08:11;;;;;;;4.47;1.15;;;;;;;;;;6202923;23;20016;-65
2022/06/13 15:10:44;;;;;;;4.75;1.48;;;;;;;;;;6194677;23;20111;-65
2022/06/13 15:13:11;;;;;;;5.45;1.20;;;;;;;;;;6208560;23;20557;-65
2022/06/13 15:15:44;;;;;;;6.35;1.40;;;;;;;;;;6201247;23;20112;-65
2022/06/13 15:18:17;;;;;;;5.78;1.50;;;;;;;;;;6207377;23;20052;-65
2022/06/13 15:20:45;;;;;;;5.07;1.75;;;;;;;;;;6207007;23;20024;-65
2022/06/13 15:23:16;;;;;;;5.43;1.38;;;;;;;;;;6195198;23;20103;-64
2022/06/13 15:25:43;;;;;;;6.75;1.20;;;;;;;;;;6209498;23;20439;-65
2022/06/13 15:28:11;;;;;;;5.00;1.17;;;;;;;;;;6200483;23;20086;-64